createdAt,value
2017-06-30T00:00:13.410Z,10.90
2017-06-30T00:02:41.686Z,9.83
2017-06-30T00:05:10.007Z,10.40
2017-06-30T00:07:39.794Z,10.27
2017-06-30T00:10:09.417Z,10.00
2017-06-30T00:12:38.043Z,16.23
2017-06-30T00:15:06.340Z,10.23
2017-06-30T00:17:35.020Z,9.20
2017-06-30T00:20:03.675Z,9.50
2017-06-30T00:22:32.715Z,9.87
2017-06-30T00:25:00.995Z,10.07
2017-06-30T00:27:29.322Z,11.17
2017-06-30T00:29:57.603Z,10.60
2017-06-30T00:32:27.234Z,10.63
2017-06-30T00:34:55.826Z,10.67
2017-06-30T00:37:24.107Z,11.43
2017-06-30T00:39:53.155Z,11.93
2017-06-30T00:42:24.705Z,10.30
2017-06-30T00:44:53.486Z,11.33
2017-06-30T00:47:21.778Z,10.90
2017-06-30T00:49:50.115Z,9.90
2017-06-30T00:52:19.899Z,10.80
2017-06-30T00:54:48.363Z,10.30
2017-06-30T00:57:17.834Z,9.83
2017-06-30T00:59:46.118Z,10.33
2017-06-30T01:02:14.391Z,9.87
2017-06-30T01:04:42.998Z,9.93
2017-06-30T01:07:11.278Z,11.70
2017-06-30T01:09:40.699Z,10.20
2017-06-30T01:12:09.022Z,10.47
2017-06-30T01:14:38.645Z,9.90
2017-06-30T01:17:07.570Z,10.40
2017-06-30T01:19:35.911Z,11.50
2017-06-30T01:22:04.981Z,11.87
2017-06-30T01:24:33.277Z,10.47
2017-06-30T01:27:02.974Z,9.77
2017-06-30T01:29:31.118Z,10.17
2017-06-30T01:31:59.398Z,10.43
2017-06-30T01:34:28.638Z,12.00
2017-06-30T01:36:57.679Z,9.43
2017-06-30T01:39:26.351Z,9.33
2017-06-30T01:41:56.170Z,8.97
2017-06-30T01:44:25.798Z,9.00
2017-06-30T01:46:54.347Z,8.10
2017-06-30T01:49:22.698Z,8.23
2017-06-30T01:51:50.975Z,9.57
2017-06-30T01:54:20.611Z,7.87
2017-06-30T01:56:49.295Z,8.53
2017-06-30T01:59:18.922Z,6.93
2017-06-30T02:01:47.834Z,6.67
2017-06-30T02:04:17.242Z,7.50
2017-06-30T02:06:46.282Z,5.70
2017-06-30T02:09:15.326Z,7.73
2017-06-30T02:11:43.939Z,6.80
2017-06-30T02:14:13.566Z,5.63
2017-06-30T02:16:41.715Z,5.47
2017-06-30T02:19:11.543Z,5.27
2017-06-30T02:21:39.815Z,4.57
2017-06-30T02:24:08.090Z,3.73
2017-06-30T02:26:36.632Z,4.17
2017-06-30T02:29:04.918Z,3.20
2017-06-30T02:31:33.203Z,4.00
2017-06-30T02:34:03.022Z,2.67
2017-06-30T02:36:32.655Z,4.17
2017-06-30T02:39:01.199Z,3.03
2017-06-30T02:41:30.787Z,3.47
2017-06-30T02:43:59.452Z,3.40
2017-06-30T02:46:28.123Z,3.07
2017-06-30T02:48:57.306Z,4.13
2017-06-30T02:51:27.083Z,2.43
2017-06-30T02:53:55.358Z,2.77
2017-06-30T02:56:25.046Z,1.93
2017-06-30T02:58:53.194Z,2.77
2017-06-30T03:01:21.476Z,1.43
2017-06-30T03:03:50.586Z,1.63
2017-06-30T03:06:18.858Z,1.57
2017-06-30T03:08:47.904Z,1.50
2017-06-30T03:11:17.278Z,2.27
2017-06-30T03:13:47.058Z,0.90
2017-06-30T03:16:16.467Z,2.13
2017-06-30T03:18:45.550Z,5.70
2017-06-30T03:21:14.966Z,1.00
2017-06-30T03:23:43.703Z,1.20
2017-06-30T03:26:13.190Z,3.10
2017-06-30T03:28:41.858Z,1.50
2017-06-30T03:31:10.906Z,1.30
2017-06-30T03:33:40.574Z,1.43
2017-06-30T03:36:09.115Z,1.37
2017-06-30T03:38:38.742Z,0.90
2017-06-30T03:41:07.715Z,1.13
2017-06-30T03:43:36.391Z,1.60
2017-06-30T03:46:05.444Z,2.00
2017-06-30T03:51:34.122Z,1.23
2017-06-30T03:54:02.806Z,1.57
2017-06-30T03:56:31.086Z,2.30
2017-06-30T03:59:00.946Z,1.40
2017-06-30T04:01:30.559Z,1.03
2017-06-30T04:03:59.471Z,1.20
2017-06-30T04:06:28.572Z,2.30
2017-06-30T04:08:58.194Z,5.27
2017-06-30T04:11:26.743Z,1.43
2017-06-30T04:13:56.693Z,1.20
2017-06-30T04:16:24.850Z,2.50
2017-06-30T04:18:53.126Z,0.90
2017-06-30T04:21:21.453Z,2.83
2017-06-30T04:23:51.082Z,4.70
2017-06-30T04:26:19.230Z,1.37
2017-06-30T04:28:47.551Z,2.03
2017-06-30T04:31:15.835Z,1.70
2017-06-30T04:33:44.099Z,1.90
2017-06-30T04:36:12.523Z,5.47
2017-06-30T04:38:42.303Z,3.13
2017-06-30T04:41:10.575Z,3.97
2017-06-30T04:43:39.286Z,1.73
2017-06-30T04:46:08.332Z,2.77
2017-06-30T04:48:37.974Z,5.23
2017-06-30T04:51:06.598Z,3.87
2017-06-30T04:53:35.644Z,3.90
2017-06-30T04:56:04.703Z,1.97
2017-06-30T04:58:33.043Z,2.17
2017-06-30T05:01:01.314Z,8.50
2017-06-30T05:03:29.598Z,2.10
2017-06-30T05:05:57.914Z,4.47
2017-06-30T05:08:27.327Z,1.83
2017-06-30T05:10:55.603Z,2.60
2017-06-30T05:13:24.463Z,3.90
2017-06-30T05:15:52.747Z,5.00
2017-06-30T05:18:22.171Z,2.70
2017-06-30T05:20:51.846Z,1.57
2017-06-30T05:23:20.771Z,3.30
2017-06-30T05:25:49.046Z,1.77
2017-06-30T05:28:18.146Z,1.40
2017-06-30T05:30:46.422Z,4.00
2017-06-30T05:33:15.465Z,1.30
2017-06-30T05:35:44.571Z,3.43
2017-06-30T05:38:12.834Z,3.60
2017-06-30T05:40:42.614Z,1.60
2017-06-30T05:43:10.931Z,5.13
2017-06-30T05:45:40.718Z,2.20
2017-06-30T05:48:09.768Z,5.03
2017-06-30T05:50:38.370Z,7.00
2017-06-30T05:53:07.418Z,4.53
2017-06-30T05:55:35.706Z,2.00
2017-06-30T05:58:04.055Z,2.07
2017-06-30T06:00:32.355Z,4.37
2017-06-30T06:03:00.631Z,5.43
2017-06-30T06:05:30.801Z,1.70
2017-06-30T06:07:59.842Z,3.33
2017-06-30T06:10:28.879Z,3.00
2017-06-30T06:12:58.618Z,1.63
2017-06-30T06:15:27.295Z,4.20
2017-06-30T06:17:55.570Z,2.40
2017-06-30T06:20:24.659Z,3.17
2017-06-30T06:22:52.934Z,4.87
2017-06-30T06:25:21.999Z,3.13
2017-06-30T06:27:50.746Z,2.00
2017-06-30T06:30:19.022Z,2.60
2017-06-30T06:32:47.700Z,2.50
2017-06-30T06:35:17.548Z,2.97
2017-06-30T06:37:45.822Z,5.57
2017-06-30T06:40:14.098Z,3.27
2017-06-30T06:42:42.447Z,2.87
2017-06-30T06:45:12.219Z,2.57
2017-06-30T06:47:40.494Z,2.37
2017-06-30T06:50:08.839Z,2.63
2017-06-30T06:52:37.890Z,1.73
2017-06-30T06:55:06.178Z,1.60
2017-06-30T06:57:34.551Z,2.00
2017-06-30T07:00:03.373Z,1.50
2017-06-30T07:02:32.790Z,4.37
2017-06-30T07:05:02.644Z,2.43
2017-06-30T07:07:30.927Z,1.63
2017-06-30T07:09:59.198Z,3.23
2017-06-30T07:12:28.673Z,3.03
2017-06-30T07:14:56.950Z,2.33
2017-06-30T07:17:25.995Z,3.70
2017-06-30T07:19:54.407Z,3.03
2017-06-30T07:22:23.818Z,1.77
2017-06-30T07:24:52.106Z,3.53
2017-06-30T07:27:20.430Z,3.70
2017-06-30T07:29:48.702Z,5.60
2017-06-30T07:32:17.742Z,2.60
2017-06-30T07:34:46.079Z,2.90
2017-06-30T07:37:15.119Z,3.63
2017-06-30T07:39:44.527Z,1.83
2017-06-30T07:42:14.374Z,4.10
2017-06-30T07:44:44.156Z,3.63
2017-06-30T07:47:12.427Z,2.57
2017-06-30T07:49:42.270Z,2.97
2017-06-30T07:52:10.542Z,2.33
2017-06-30T07:54:38.818Z,3.83
2017-06-30T07:57:07.440Z,1.90
2017-06-30T07:59:35.731Z,5.50
2017-06-30T08:02:04.023Z,2.30
2017-06-30T08:04:33.725Z,9.27
2017-06-30T08:07:01.899Z,4.00
2017-06-30T08:09:31.542Z,3.83
2017-06-30T08:12:00.830Z,1.57
2017-06-30T08:14:29.106Z,2.37
2017-06-30T08:16:57.779Z,2.90
2017-06-30T08:19:26.119Z,3.17
2017-06-30T08:21:55.159Z,2.53
2017-06-30T08:24:23.831Z,10.33
2017-06-30T08:26:52.524Z,4.40
2017-06-30T08:29:20.811Z,2.53
2017-06-30T08:31:50.598Z,2.60
2017-06-30T08:34:18.947Z,3.47
2017-06-30T08:36:47.223Z,2.67
2017-06-30T08:39:15.499Z,3.13
2017-06-30T08:41:45.174Z,1.80
2017-06-30T08:44:13.322Z,1.60
2017-06-30T08:46:41.594Z,8.67
2017-06-30T08:49:09.918Z,2.97
2017-06-30T08:51:39.546Z,4.20
2017-06-30T08:54:08.111Z,2.20
2017-06-30T08:56:36.458Z,2.63
2017-06-30T08:59:04.752Z,2.50
2017-06-30T09:01:33.807Z,3.87
2017-06-30T09:04:02.499Z,4.83
2017-06-30T09:06:31.939Z,4.07
2017-06-30T09:09:01.591Z,1.93
2017-06-30T09:11:30.206Z,2.53
2017-06-30T09:13:59.842Z,2.60
2017-06-30T09:16:28.390Z,3.03
2017-06-30T09:18:56.709Z,3.83
2017-06-30T09:21:24.983Z,3.53
2017-06-30T09:23:54.610Z,5.50
2017-06-30T09:26:23.238Z,4.57
2017-06-30T09:28:51.935Z,6.07
2017-06-30T09:31:20.214Z,2.10
2017-06-30T09:33:49.343Z,1.70
2017-06-30T09:36:18.011Z,2.63
2017-06-30T09:38:46.293Z,3.07
2017-06-30T09:41:14.610Z,4.17
2017-06-30T09:43:43.651Z,3.27
2017-06-30T09:46:11.923Z,3.20
2017-06-30T09:48:41.600Z,7.90
2017-06-30T09:51:09.750Z,2.80
2017-06-30T09:53:38.047Z,6.20
2017-06-30T09:56:06.705Z,2.60
2017-06-30T09:58:35.006Z,3.03
2017-06-30T10:01:03.296Z,5.47
2017-06-30T10:03:32.864Z,3.53
2017-06-30T10:06:01.148Z,3.20
2017-06-30T10:08:30.767Z,5.67
2017-06-30T10:10:59.743Z,5.17
2017-06-30T10:13:29.151Z,2.50
2017-06-30T10:15:57.826Z,2.93
2017-06-30T10:18:26.168Z,2.07
2017-06-30T10:20:54.442Z,3.70
2017-06-30T10:23:23.490Z,1.80
2017-06-30T10:28:27.834Z,2.93
2017-06-30T10:30:56.459Z,2.83
2017-06-30T10:33:25.499Z,2.80
2017-06-30T10:35:53.770Z,3.90
2017-06-30T10:38:22.482Z,3.53
2017-06-30T10:40:50.779Z,5.33
2017-06-30T10:43:19.062Z,3.63
2017-06-30T10:45:47.378Z,3.97
2017-06-30T10:48:16.786Z,5.03
2017-06-30T10:50:45.455Z,2.87
2017-06-30T10:53:14.078Z,4.00
2017-06-30T10:55:43.702Z,1.53
2017-06-30T10:58:12.991Z,3.43
2017-06-30T11:00:43.476Z,8.00
2017-06-30T11:03:13.259Z,5.90
2017-06-30T11:05:41.530Z,4.27
2017-06-30T11:10:43.982Z,3.00
2017-06-30T11:13:12.395Z,1.53
2017-06-30T11:15:41.803Z,3.00
2017-06-30T11:18:10.076Z,2.87
2017-06-30T11:20:38.422Z,3.43
2017-06-30T11:23:06.718Z,2.80
2017-06-30T11:25:35.015Z,1.80
2017-06-30T11:28:04.900Z,3.40
2017-06-30T11:30:34.539Z,3.17
2017-06-30T11:33:03.097Z,3.67
2017-06-30T11:35:31.469Z,3.17
2017-06-30T11:37:59.723Z,1.60
2017-06-30T11:40:27.998Z,3.13
2017-06-30T11:42:57.084Z,1.67
2017-06-30T11:45:26.122Z,1.20
2017-06-30T11:47:55.165Z,6.43
2017-06-30T11:50:23.506Z,3.30
2017-06-30T11:52:51.788Z,2.20
2017-06-30T11:55:20.073Z,3.87
2017-06-30T11:57:49.542Z,1.90
2017-06-30T12:00:18.578Z,2.60
2017-06-30T12:02:46.851Z,4.60
2017-06-30T12:05:16.304Z,3.70
2017-06-30T12:07:44.579Z,2.00
2017-06-30T12:10:12.850Z,3.23
2017-06-30T12:12:41.166Z,1.50
2017-06-30T12:15:10.947Z,2.97
2017-06-30T12:17:39.219Z,2.13
2017-06-30T12:20:08.711Z,8.67
2017-06-30T12:22:37.762Z,2.87
2017-06-30T12:25:06.828Z,3.83
2017-06-30T12:27:36.373Z,2.60
2017-06-30T12:30:05.183Z,5.83
2017-06-30T12:32:33.466Z,2.57
2017-06-30T12:35:01.805Z,1.27
2017-06-30T12:37:31.578Z,3.10
2017-06-30T12:40:01.412Z,1.73
2017-06-30T12:42:29.723Z,4.30
2017-06-30T12:44:58.762Z,1.60
2017-06-30T12:47:27.835Z,2.30
2017-06-30T12:49:56.142Z,2.80
2017-06-30T12:52:24.810Z,1.27
2017-06-30T12:54:54.627Z,3.27
2017-06-30T12:57:22.954Z,1.53
2017-06-30T12:59:51.233Z,2.37
2017-06-30T13:02:20.907Z,1.73
2017-06-30T13:04:49.447Z,2.33
2017-06-30T13:07:17.724Z,1.83
2017-06-30T13:09:46.823Z,1.73
2017-06-30T13:12:16.450Z,1.90
2017-06-30T13:14:45.007Z,2.33
2017-06-30T13:17:13.346Z,1.37
2017-06-30T13:19:42.970Z,2.00
2017-06-30T13:22:11.514Z,2.50
2017-06-30T13:24:40.598Z,1.93
2017-06-30T13:27:09.637Z,3.00
2017-06-30T13:29:37.921Z,1.20
2017-06-30T13:32:06.603Z,3.50
2017-06-30T13:34:36.397Z,11.90
2017-06-30T13:37:06.088Z,3.43
2017-06-30T13:39:35.035Z,3.17
2017-06-30T13:42:03.325Z,1.80
2017-06-30T13:44:33.015Z,2.60
2017-06-30T13:47:01.559Z,2.40
2017-06-30T13:49:30.603Z,1.80
2017-06-30T13:51:58.918Z,2.53
2017-06-30T13:54:27.193Z,2.27
2017-06-30T13:56:56.973Z,6.10
2017-06-30T13:59:25.292Z,1.80
2017-06-30T14:01:53.574Z,3.20
2017-06-30T14:04:21.859Z,1.93
2017-06-30T14:06:50.196Z,3.40
2017-06-30T14:09:18.473Z,2.10
2017-06-30T14:11:46.742Z,2.40
2017-06-30T14:14:16.198Z,3.33
2017-06-30T14:16:44.466Z,4.57
2017-06-30T14:19:12.746Z,3.60
2017-06-30T14:21:42.436Z,2.30
2017-06-30T14:24:10.990Z,4.27
2017-06-30T14:26:39.261Z,3.07
2017-06-30T14:29:07.654Z,2.70
2017-06-30T14:31:36.333Z,2.17
2017-06-30T14:34:05.977Z,3.00
2017-06-30T14:36:36.772Z,2.07
2017-06-30T14:39:04.944Z,4.57
2017-06-30T14:41:33.631Z,2.83
2017-06-30T14:44:01.978Z,3.00
2017-06-30T14:46:30.247Z,3.17
2017-06-30T14:48:59.282Z,2.20
2017-06-30T14:51:28.636Z,2.60
2017-06-30T14:53:57.675Z,5.67
2017-06-30T14:56:26.347Z,1.87
2017-06-30T14:58:54.675Z,4.00
2017-06-30T15:01:22.960Z,6.53
2017-06-30T15:03:52.749Z,6.10
2017-06-30T15:06:21.415Z,2.83
2017-06-30T15:08:50.078Z,1.53
2017-06-30T15:11:18.360Z,2.37
2017-06-30T15:13:46.691Z,1.70
2017-06-30T15:16:16.466Z,1.47
2017-06-30T15:18:44.739Z,1.40
2017-06-30T15:21:13.430Z,2.50
2017-06-30T15:23:42.842Z,1.73
2017-06-30T15:26:11.134Z,6.83
2017-06-30T15:28:39.766Z,2.50
2017-06-30T15:31:08.050Z,1.30
2017-06-30T15:33:36.740Z,1.30
2017-06-30T15:36:05.830Z,2.40
2017-06-30T15:38:34.125Z,3.27
2017-06-30T15:41:03.765Z,1.23
2017-06-30T15:43:33.482Z,1.73
2017-06-30T15:46:02.399Z,3.23
2017-06-30T15:48:31.830Z,2.23
2017-06-30T15:51:00.935Z,2.50
2017-06-30T15:53:29.213Z,4.17
2017-06-30T15:55:58.251Z,2.10
2017-06-30T15:58:26.573Z,4.43
2017-06-30T16:00:54.846Z,2.43
2017-06-30T16:03:24.470Z,2.40
2017-06-30T16:08:28.330Z,1.60
2017-06-30T16:10:56.918Z,1.03
2017-06-30T16:13:25.194Z,2.30
2017-06-30T16:15:53.470Z,4.83
2017-06-30T16:18:21.795Z,1.40
2017-06-30T16:20:50.067Z,1.23
2017-06-30T16:23:18.343Z,2.63
2017-06-30T16:25:46.671Z,1.00
2017-06-30T16:28:16.451Z,1.10
2017-06-30T16:30:44.731Z,1.13
2017-06-30T16:33:13.576Z,2.10
2017-06-30T16:35:42.280Z,2.50
2017-06-30T16:38:11.925Z,1.43
2017-06-30T16:40:40.831Z,2.73
2017-06-30T16:43:10.501Z,2.90
2017-06-30T16:45:38.660Z,1.90
2017-06-30T16:48:07.007Z,0.90
2017-06-30T16:50:35.306Z,1.40
2017-06-30T16:53:03.605Z,1.20
2017-06-30T16:55:33.090Z,3.23
2017-06-30T16:58:01.363Z,4.97
2017-06-30T17:00:29.647Z,1.60
2017-06-30T17:02:58.338Z,1.83
2017-06-30T17:05:27.970Z,1.90
2017-06-30T17:07:56.132Z,1.47
2017-06-30T17:10:24.452Z,2.97
2017-06-30T17:12:54.098Z,2.37
2017-06-30T17:15:23.011Z,4.00
2017-06-30T17:17:52.104Z,3.03
2017-06-30T17:20:21.721Z,2.97
2017-06-30T17:22:50.270Z,2.33
2017-06-30T17:25:18.667Z,1.30
2017-06-30T17:27:48.090Z,2.00
2017-06-30T17:30:17.130Z,2.03
2017-06-30T17:32:45.459Z,6.40
2017-06-30T17:35:14.871Z,2.33
2017-06-30T17:37:43.148Z,3.13
2017-06-30T17:40:11.570Z,1.87
2017-06-30T17:42:39.850Z,2.77
2017-06-30T17:45:08.143Z,1.53
2017-06-30T17:47:37.832Z,1.80
2017-06-30T17:50:05.993Z,3.83
2017-06-30T17:52:34.283Z,3.43
2017-06-30T17:55:02.659Z,4.03
2017-06-30T17:57:32.342Z,1.53
2017-06-30T18:00:02.031Z,4.50
2017-06-30T18:02:32.187Z,2.30
2017-06-30T18:05:00.463Z,3.20
2017-06-30T18:07:30.091Z,5.70
2017-06-30T18:12:34.470Z,1.27
2017-06-30T18:15:02.687Z,3.50
2017-06-30T18:17:32.325Z,2.00
2017-06-30T18:20:00.870Z,6.30
2017-06-30T18:22:30.471Z,7.10
2017-06-30T18:24:59.522Z,7.80
2017-06-30T18:27:27.795Z,8.70
2017-06-30T18:29:56.143Z,8.77
2017-06-30T18:32:25.764Z,8.77
2017-06-30T18:34:55.271Z,8.37
2017-06-30T18:37:24.902Z,9.30
2017-06-30T18:42:55.611Z,7.10
2017-06-30T18:45:24.154Z,8.50
2017-06-30T18:47:52.430Z,6.70
2017-06-30T18:50:20.759Z,8.13
2017-06-30T18:52:50.382Z,7.40
2017-06-30T18:55:18.530Z,6.93
2017-06-30T18:57:47.142Z,7.20
2017-06-30T19:00:16.555Z,6.80
2017-06-30T19:02:44.827Z,5.80
2017-06-30T19:05:13.459Z,6.03
2017-06-30T19:07:43.090Z,6.87
2017-06-30T19:10:11.634Z,9.27
2017-06-30T19:12:41.382Z,6.97
2017-06-30T19:15:09.930Z,7.53
2017-06-30T19:17:38.214Z,7.53
2017-06-30T19:20:06.582Z,6.40
2017-06-30T19:22:35.636Z,5.83
2017-06-30T19:25:03.966Z,6.53
2017-06-30T19:27:33.799Z,6.60
2017-06-30T19:30:03.443Z,6.83
2017-06-30T19:32:31.988Z,6.17
2017-06-30T19:35:00.986Z,6.07
2017-06-30T19:37:29.262Z,8.83
2017-06-30T19:39:57.534Z,6.40
2017-06-30T19:42:26.618Z,9.47
2017-06-30T19:44:54.894Z,6.30
2017-06-30T19:47:23.171Z,5.33
2017-06-30T19:49:51.515Z,7.07
2017-06-30T19:52:19.794Z,6.23
2017-06-30T19:54:48.835Z,7.77
2017-06-30T19:57:17.154Z,6.50
2017-06-30T19:59:46.194Z,6.20
2017-06-30T20:02:14.467Z,7.50
2017-06-30T20:04:44.403Z,7.87
2017-06-30T20:07:13.691Z,10.60
2017-06-30T20:09:41.971Z,11.43
2017-06-30T20:12:11.910Z,12.33
2017-06-30T20:14:40.075Z,12.90
2017-06-30T20:17:08.387Z,13.20
2017-06-30T20:19:38.254Z,14.83
2017-06-30T20:22:06.575Z,14.40
2017-06-30T20:24:34.871Z,15.33
2017-06-30T20:27:03.221Z,14.67
2017-06-30T20:29:31.499Z,15.20
2017-06-30T20:32:01.296Z,15.93
2017-06-30T20:34:29.899Z,16.60
2017-06-30T20:36:59.691Z,16.87
2017-06-30T20:39:29.121Z,17.10
2017-06-30T20:41:58.218Z,18.60
2017-06-30T20:44:26.494Z,17.53
2017-06-30T20:46:56.134Z,16.60
2017-06-30T20:49:25.762Z,18.03
2017-06-30T20:51:54.061Z,20.13
2017-06-30T20:54:23.859Z,17.97
2017-06-30T20:56:52.618Z,19.50
2017-06-30T20:59:20.905Z,18.67
2017-06-30T21:01:49.954Z,19.30
2017-06-30T21:04:18.655Z,19.00
2017-06-30T21:06:47.334Z,18.43
2017-06-30T21:09:16.762Z,20.83
2017-06-30T21:11:45.387Z,19.77
2017-06-30T21:14:15.183Z,19.03
2017-06-30T21:16:43.474Z,21.50
2017-06-30T21:19:11.851Z,21.60
2017-06-30T21:21:40.138Z,19.97
2017-06-30T21:24:10.572Z,22.60
2017-06-30T21:26:39.586Z,21.10
2017-06-30T21:29:08.687Z,37.43
2017-06-30T21:31:37.363Z,24.00
2017-06-30T21:34:05.707Z,23.40
2017-06-30T21:36:33.990Z,21.93
2017-06-30T21:39:03.787Z,24.57
2017-06-30T21:41:32.695Z,26.20
2017-06-30T21:44:01.755Z,25.27
2017-06-30T21:46:30.495Z,22.93
2017-06-30T21:48:58.986Z,24.73
2017-06-30T21:51:27.270Z,26.70
2017-06-30T21:53:57.067Z,26.90
2017-06-30T21:56:27.353Z,27.70
2017-06-30T21:58:55.516Z,26.20
2017-06-30T22:01:23.804Z,25.57
2017-06-30T22:03:53.610Z,24.83
2017-06-30T22:06:22.166Z,27.87
2017-06-30T22:08:51.214Z,29.80
2017-06-30T22:11:19.571Z,28.57
2017-06-30T22:13:47.896Z,29.07
2017-06-30T22:16:16.207Z,30.70
2017-06-30T22:18:45.699Z,29.97
2017-06-30T22:21:13.990Z,30.33
2017-06-30T22:23:43.797Z,29.60
2017-06-30T22:26:12.143Z,27.17
2017-06-30T22:28:40.471Z,27.70
2017-06-30T22:31:08.766Z,28.40
2017-06-30T22:33:39.016Z,24.67
2017-06-30T22:36:07.316Z,26.83
2017-06-30T22:38:35.598Z,26.00
2017-06-30T22:41:05.437Z,24.23
2017-06-30T22:43:33.714Z,24.00
2017-06-30T22:46:02.771Z,23.60
2017-06-30T22:48:31.374Z,20.83
2017-06-30T22:51:00.082Z,19.93
2017-06-30T22:53:29.510Z,18.60
2017-06-30T22:55:57.858Z,17.70
2017-06-30T22:58:27.278Z,20.47
2017-06-30T23:00:55.570Z,18.90
2017-06-30T23:03:24.202Z,17.87
2017-06-30T23:05:53.627Z,16.07
2017-06-30T23:08:21.913Z,17.80
2017-06-30T23:10:50.287Z,14.67
2017-06-30T23:13:19.351Z,14.70
2017-06-30T23:15:48.410Z,14.17
2017-06-30T23:18:18.086Z,14.87
2017-06-30T23:20:46.258Z,14.07
2017-06-30T23:23:15.335Z,13.17
2017-06-30T23:25:43.962Z,13.47
2017-06-30T23:28:12.663Z,13.97
2017-06-30T23:30:40.953Z,12.57
2017-06-30T23:33:09.314Z,13.73
2017-06-30T23:35:39.108Z,15.00
2017-06-30T23:38:08.755Z,13.80
2017-06-30T23:40:38.338Z,12.97
2017-06-30T23:43:07.267Z,15.17
2017-06-30T23:45:35.550Z,13.73
2017-06-30T23:48:04.208Z,14.73
2017-06-30T23:50:32.488Z,15.70
2017-06-30T23:53:00.770Z,15.50
2017-06-30T23:55:29.110Z,16.20
2017-06-30T23:57:58.522Z,21.10
